KSEE  Gillespie Field Airport

Add Bookmark

San Diego/El Cajon, California, United States

Status Useage
Operational Public
Latitude Longitude
32° 49' 34" N 116° 58' 20" W
32.826222 -116.972444
Local (DST -7) UTC (GMT -8)
Dec 20, 2014 09:56 Dec 20, 2014 17:56
Sunrise-Sunset Local UTC
Begin Civil Twilight 06:17 14:17
Sunrise 06:45 14:45
Sunset 04:47 00:47
End Civil Twilight 05:14 01:14

Current Weather

METAR Observed
KSEE 201715Z AUTO 00000KT 7SM 09/09 A3023 Sat, Dec 20, 2014 @ 17:15 UTC
(41 Minutes ago)
Wind Visibility Conditions
Calm 7 statute miles
  • No significant weather
Temperatures Readings Precipitation
Current Temp 9°C (48°F)
Dewpoint 9°C (48°F)
Humidity 100%
Altimeter 30.23"Hg
Sea Level Pressure 1024mb
Field Elevation 385'
None Recorded

Additional weather within a 50nm radius of KSEE

Map ICAO Location
KMYF 8.5nm W (266°)
KNKX 8.9nm W (287°)
KSAN 12.3nm W (243°)
KRNM 13.1nm N (013°)
KNZY 14.4nm W (238°)
KSDM 15.2nm S (180°)
MMTJ 17.1nm S (180°)
KNRS 17.2nm S (205°)
KCRQ 23.8nm N (320°)
KCZZ 28.2nm E (116°)

24 Hour Weather History

Loading
-

24 Hour Weather Graphs

Loading
-

CheckWX.com is intended as a tool to help pilots better visualize weather data. It is not intended as a substitute for an official weather briefing obtained from a Flight Service Station. CheckWX.com does not meet the FAA requirements for an official pre-flight weather briefing. Therefore, it's important that pilots still call and obtain an official FSS pre-flight weather briefing.